Time;durP1;ratioP1;P1;durP2;ratioP2;P2;SDS_P1;SDS_P2;PMS_P1;PMS_P2;Temp;Humidity;BMP_temperature;BMP_pressure;BME280_temperature;BME280_humidity;BME280_pressure;Samples;Min_cycle;Max_cycle;Signal;HPM_P1;HPM_P2
2024/01/07 00:01:30;;;;;;;3.33;2.10;;;;;;;27.73;23.99;100595.25;7391758;19;20454;-58
2024/01/07 00:03:57;;;;;;;2.35;1.23;;;;;;;27.30;24.51;100604.09;7396920;19;20350;-58
2024/01/07 00:06:23;;;;;;;3.15;2.42;;;;;;;27.12;24.64;100602.41;7390677;19;20014;-58
2024/01/07 00:08:49;;;;;;;3.03;2.13;;;;;;;26.21;24.70;100610.88;7390238;19;20014;-58
2024/01/07 00:11:15;;;;;;;13.07;2.13;;;;;;;25.23;25.97;100616.78;7394606;19;20070;-58
2024/01/07 00:13:41;;;;;;;7.18;1.90;;;;;;;24.38;26.28;100620.78;7398673;19;20122;-58
2024/01/07 00:16:08;;;;;;;0.40;0.30;;;;;;;24.56;26.39;100616.97;7397303;19;20018;-58
2024/01/07 00:18:34;;;;;;;1.08;1.05;;;;;;;24.44;26.18;100622.16;7399226;19;20355;-58
2024/01/07 00:21:00;;;;;;;0.75;0.68;;;;;;;24.63;25.96;100628.44;7398386;19;20006;-58
2024/01/07 00:23:27;;;;;;;8.02;2.58;;;;;;;25.58;25.09;100627.50;7401123;19;20014;-58
2024/01/07 00:25:54;;;;;;;10.57;2.65;;;;;;;25.65;25.08;100633.81;7399421;19;20017;-58
2024/01/07 00:28:20;;;;;;;4.60;2.20;;;;;;;24.75;26.11;100628.97;7399092;19;20010;-59
2024/01/07 00:30:47;;;;;;;2.05;1.50;;;;;;;25.61;25.15;100634.19;7396447;19;20018;-58
2024/01/07 00:33:13;;;;;;;5.85;2.83;;;;;;;25.94;25.12;100633.22;7397518;19;20021;-58
2024/01/07 00:35:39;;;;;;;5.03;2.95;;;;;;;24.34;25.84;100640.28;7397039;19;20014;-58
2024/01/07 00:38:05;;;;;;;16.55;5.85;;;;;;;23.78;26.70;100635.78;7398534;19;20043;-58
2024/01/07 00:40:31;;;;;;;5.38;2.63;;;;;;;23.95;26.36;100644.72;7398279;19;20015;-58
2024/01/07 00:42:57;;;;;;;3.50;2.75;;;;;;;23.41;26.69;100640.94;7399538;19;20017;-58
2024/01/07 00:45:23;;;;;;;9.38;2.80;;;;;;;23.40;26.88;100640.16;7397370;19;20014;-57
2024/01/07 00:47:50;;;;;;;8.88;2.50;;;;;;;23.72;26.71;100645.72;7398606;19;20014;-58
2024/01/07 00:50:16;;;;;;;2.40;1.77;;;;;;;23.64;27.34;100636.34;7396502;19;20011;-58
2024/01/07 00:52:43;;;;;;;8.90;2.45;;;;;;;23.41;27.51;100640.94;7395664;19;20006;-58
2024/01/07 00:55:09;;;;;;;6.25;1.95;;;;;;;23.09;27.61;100649.50;7400405;19;20328;-57
2024/01/07 00:57:35;;;;;;;2.28;1.83;;;;;;;22.66;27.70;100657.44;7397413;19;20507;-57
2024/01/07 01:00:05;;;;;;;2.58;2.20;;;;;;;22.15;28.13;100660.25;7398054;19;20384;-58
2024/01/07 01:02:31;;;;;;;2.78;2.20;;;;;;;23.09;27.35;100655.19;7397830;19;20078;-58
2024/01/07 01:04:58;;;;;;;7.10;2.03;;;;;;;23.71;26.66;100653.53;7401894;19;20511;-58
2024/01/07 01:07:24;;;;;;;1.75;1.20;;;;;;;23.13;26.93;100655.66;7397243;19;20466;-58
2024/01/07 01:09:50;;;;;;;5.72;1.77;;;;;;;22.96;27.01;100663.66;7397257;19;20112;-58
2024/01/07 01:12:16;;;;;;;1.90;1.77;;;;;;;22.98;27.05;100666.72;7396301;19;20010;-57
2024/01/07 01:14:42;;;;;;;4.88;3.33;;;;;;;23.59;26.85;100669.25;7401255;19;20034;-57
2024/01/07 01:17:08;;;;;;;10.10;3.03;;;;;;;23.16;27.20;100680.88;7395754;19;20014;-57
2024/01/07 01:19:34;;;;;;;6.60;2.88;;;;;;;21.52;28.29;100682.66;7396821;19;20011;-58
2024/01/07 01:22:00;;;;;;;2.22;2.13;;;;;;;21.18;28.89;100681.47;7397569;19;20034;-57
2024/01/07 01:24:27;;;;;;;1.48;0.63;;;;;;;22.12;28.29;100675.50;7398377;19;20025;-56
2024/01/07 01:26:53;;;;;;;8.93;3.13;;;;;;;23.22;27.29;100675.09;7396856;19;20030;-57
2024/01/07 01:29:20;;;;;;;9.77;3.50;;;;;;;20.97;29.12;100684.69;7396856;19;20022;-57
2024/01/07 01:31:46;;;;;;;12.55;2.97;;;;;;;21.19;29.11;100688.66;7395963;19;20463;-57
2024/01/07 01:34:13;;;;;;;5.47;2.30;;;;;;;22.82;27.76;100690.50;7398278;19;20014;-57
2024/01/07 01:36:39;;;;;;;3.85;1.90;;;;;;;22.52;27.57;100690.69;7395020;19;20011;-57
2024/01/07 01:39:06;;;;;;;8.85;3.20;;;;;;;21.53;28.67;100696.28;7397360;19;20481;-57
2024/01/07 01:41:33;;;;;;;5.70;2.08;;;;;;;21.33;29.33;100690.31;7395866;19;20070;-57
2024/01/07 01:44:00;;;;;;;3.45;2.00;;;;;;;21.14;29.63;100696.66;7395479;19;20010;-57
2024/01/07 01:46:29;;;;;;;9.27;1.67;;;;;;;21.42;29.46;100704.16;7395757;19;20027;-57
2024/01/07 01:48:56;;;;;;;1.52;1.42;;;;;;;21.88;29.30;100693.34;7394968;19;20462;-57
2024/01/07 01:51:24;;;;;;;7.18;2.58;;;;;;;22.19;28.85;100691.94;7392110;19;20014;-57
2024/01/07 01:53:51;;;;;;;6.82;1.85;;;;;;;24.41;26.86;100690.84;7394188;19;20022;-58
2024/01/07 01:56:20;;;;;;;8.13;4.13;;;;;;;24.97;26.42;100701.75;7399472;19;20010;-57
2024/01/07 01:58:47;;;;;;;3.65;2.25;;;;;;;24.95;27.00;100704.38;7395746;19;20017;-58
2024/01/07 02:01:13;;;;;;;2.92;1.83;;;;;;;25.09;26.76;100703.75;7394210;19;20048;-58
2024/01/07 02:03:40;;;;;;;1.67;1.58;;;;;;;24.96;27.01;100703.81;7395947;19;20494;-58
2024/01/07 02:06:07;;;;;;;3.47;2.20;;;;;;;25.13;26.78;100701.31;7399610;19;20018;-58
2024/01/07 02:08:33;;;;;;;3.70;1.23;;;;;;;23.43;27.90;100707.31;7395456;19;20014;-58
2024/01/07 02:11:14;;;;;;;8.15;1.95;;;;;;;22.46;29.03;100718.38;7393922;19;20084;-58
2024/01/07 02:13:40;;;;;;;1.50;1.40;;;;;;;21.54;30.19;100719.75;7393327;19;20014;-58
2024/01/07 02:16:06;;;;;;;4.57;1.63;;;;;;;21.54;30.18;100729.00;7398953;19;20483;-59
2024/01/07 02:18:33;;;;;;;4.18;3.67;;;;;;;21.52;29.92;100717.44;7394807;19;20033;-59
2024/01/07 02:20:59;;;;;;;6.72;3.40;;;;;;;21.00;30.78;100726.13;7395164;19;20022;-59
2024/01/07 02:23:25;;;;;;;10.13;3.95;;;;;;;20.97;30.44;100721.50;7393312;19;20014;-59
2024/01/07 02:25:51;;;;;;;3.45;2.25;;;;;;;20.78;30.50;100729.13;7396240;19;20027;-59
2024/01/07 02:28:19;;;;;;;3.35;3.08;;;;;;;20.78;30.64;100748.16;7395117;19;20011;-59
2024/01/07 02:30:45;;;;;;;18.75;3.38;;;;;;;20.78;30.85;100746.09;7392702;19;20513;-58
2024/01/07 02:33:11;;;;;;;9.48;3.88;;;;;;;20.75;30.96;100747.16;7391820;19;20021;-58
2024/01/07 02:35:38;;;;;;;4.00;2.40;;;;;;;20.87;31.19;100747.84;7392078;19;20038;-58
2024/01/07 02:38:04;;;;;;;6.82;2.75;;;;;;;23.50;28.68;100729.41;7394465;19;20030;-58
2024/01/07 02:40:30;;;;;;;9.75;3.75;;;;;;;22.39;29.20;100736.78;7394519;19;20017;-58
2024/01/07 02:42:58;;;;;;;3.88;1.42;;;;;;;23.63;28.89;100735.09;7394384;19;20014;-58
2024/01/07 02:45:24;;;;;;;3.40;2.03;;;;;;;28.45;24.89;100727.88;7395975;19;20026;-59
2024/01/07 02:47:50;;;;;;;8.52;4.07;;;;;;;29.26;24.11;100723.59;7394393;19;20018;-58
2024/01/07 02:50:17;;;;;;;4.78;2.15;;;;;;;29.70;24.25;100729.50;7393834;19;20351;-58
2024/01/07 02:52:43;;;;;;;6.07;1.67;;;;;;;30.17;23.84;100728.47;7392913;19;20010;-58
2024/01/07 02:55:09;;;;;;;4.57;2.08;;;;;;;30.41;23.59;100733.34;7394226;19;20380;-58
2024/01/07 02:57:35;;;;;;;9.43;2.90;;;;;;;30.79;22.72;100730.00;7393494;19;20015;-58
2024/01/07 03:00:02;;;;;;;12.68;2.20;;;;;;;30.24;23.28;100739.88;7392969;19;20014;-59
2024/01/07 03:02:28;;;;;;;15.60;3.15;;;;;;;29.64;23.16;100747.00;7392833;19;20484;-58
2024/01/07 03:04:54;;;;;;;1.77;1.67;;;;;;;29.55;23.47;100747.66;7396591;19;20047;-58
2024/01/07 03:07:20;;;;;;;2.83;2.05;;;;;;;29.41;23.60;100752.16;7392753;19;20450;-58
2024/01/07 03:09:48;;;;;;;2.10;1.83;;;;;;;29.24;23.35;100761.47;7393455;19;20021;-58
2024/01/07 03:12:17;;;;;;;8.27;0.93;;;;;;;29.48;23.29;100762.81;7392514;19;20010;-58
2024/01/07 03:14:43;;;;;;;38.33;3.80;;;;;;;30.01;23.47;100755.84;7393326;19;20592;-59
2024/01/07 03:17:11;;;;;;;2.80;2.50;;;;;;;29.89;23.04;100756.34;7392915;19;20013;-58
2024/01/07 03:19:40;;;;;;;1.95;1.85;;;;;;;29.97;23.16;100767.78;7392690;19;20018;-58
2024/01/07 03:22:07;;;;;;;10.07;2.00;;;;;;;29.92;23.49;100766.66;7394917;19;20006;-58
2024/01/07 03:24:33;;;;;;;5.25;1.27;;;;;;;31.10;22.62;100768.50;7393888;19;20010;-58
2024/01/07 03:27:00;;;;;;;4.55;2.03;;;;;;;31.56;22.47;100765.66;7393364;19;20014;-59
2024/01/07 03:29:26;;;;;;;3.58;1.48;;;;;;;31.57;22.63;100770.06;7395063;19;20037;-58
2024/01/07 03:31:52;;;;;;;1.30;1.20;;;;;;;32.20;21.96;100764.91;7392428;19;20461;-58
2024/01/07 03:34:19;;;;;;;7.43;2.28;;;;;;;32.22;21.79;100767.94;7394358;19;20027;-59
2024/01/07 03:36:46;;;;;;;9.40;1.88;;;;;;;32.04;21.83;100772.31;7391741;19;20025;-58
2024/01/07 03:39:12;;;;;;;10.55;1.83;;;;;;;31.88;21.67;100773.94;7391901;19;20545;-58
2024/01/07 03:41:38;;;;;;;4.22;1.17;;;;;;;31.91;22.00;100772.72;7389968;19;20018;-58
2024/01/07 03:44:04;;;;;;;5.03;3.13;;;;;;;32.13;21.62;100777.34;7392480;19;20010;-59
2024/01/07 03:46:30;;;;;;;9.52;1.73;;;;;;;32.07;21.37;100774.00;7393881;19;20364;-58
2024/01/07 03:48:56;;;;;;;9.00;1.25;;;;;;;32.16;21.75;100776.13;7391252;19;20015;-58
2024/01/07 03:51:23;;;;;;;11.57;2.92;;;;;;;32.37;21.51;100772.63;7391188;19;20011;-59
2024/01/07 03:53:49;;;;;;;28.75;2.65;;;;;;;32.47;21.26;100784.91;7388198;19;20006;-59
2024/01/07 03:56:15;;;;;;;3.20;1.98;;;;;;;32.51;21.20;100783.13;7394563;19;20011;-58
2024/01/07 03:58:41;;;;;;;1.85;1.70;;;;;;;32.65;20.96;100789.97;7391701;19;20018;-58
2024/01/07 04:01:07;;;;;;;1.35;0.77;;;;;;;30.38;22.37;100789.19;7392190;19;20015;-58
2024/01/07 04:03:33;;;;;;;0.95;0.88;;;;;;;29.71;22.21;100791.34;7392835;19;20018;-58
2024/01/07 04:05:59;;;;;;;3.40;1.95;;;;;;;29.47;22.71;100795.78;7394991;19;20014;-58
2024/01/07 04:08:25;;;;;;;2.05;1.38;;;;;;;29.14;22.46;100799.97;7391125;19;20014;-59
2024/01/07 04:10:51;;;;;;;1.23;1.10;;;;;;;29.14;22.59;100797.13;7390842;19;20790;-58
2024/01/07 04:13:17;;;;;;;1.08;0.80;;;;;;;29.27;22.70;100790.34;7389768;19;20327;-59
2024/01/07 04:15:44;;;;;;;7.78;1.83;;;;;;;29.39;22.30;100800.78;7394290;19;20011;-58
2024/01/07 04:18:10;;;;;;;1.17;0.98;;;;;;;29.34;21.90;100798.16;7391490;19;20025;-58
2024/01/07 04:20:36;;;;;;;1.15;1.08;;;;;;;29.57;21.83;100798.72;7390822;19;20367;-58
2024/01/07 04:23:02;;;;;;;2.03;1.08;;;;;;;29.30;22.34;100810.06;7393564;19;20490;-58
2024/01/07 04:25:28;;;;;;;1.38;0.93;;;;;;;29.37;22.21;100812.09;7393623;19;20007;-58
2024/01/07 04:27:54;;;;;;;4.28;1.75;;;;;;;29.38;22.42;100812.84;7390989;19;20015;-58
2024/01/07 04:30:20;;;;;;;2.72;1.25;;;;;;;29.25;22.51;100816.78;7388448;19;20325;-58
2024/01/07 04:32:46;;;;;;;1.05;0.65;;;;;;;29.12;22.22;100814.16;7386675;19;20367;-58
2024/01/07 04:35:13;;;;;;;2.00;1.40;;;;;;;29.35;22.17;100811.91;7389484;19;20014;-58
2024/01/07 04:37:39;;;;;;;0.63;0.63;;;;;;;28.84;23.05;100817.38;7387580;19;20010;-58
2024/01/07 04:40:05;;;;;;;1.38;1.23;;;;;;;27.95;23.59;100829.22;7387527;19;20014;-59
2024/01/07 04:42:31;;;;;;;0.80;0.70;;;;;;;27.44;23.71;100834.38;7387642;19;20470;-59
2024/01/07 04:44:57;;;;;;;1.35;0.30;;;;;;;28.52;23.22;100829.50;7390562;19;20015;-59
2024/01/07 04:47:25;;;;;;;1.55;1.10;;;;;;;28.74;23.35;100833.66;7390619;19;20019;-58
2024/01/07 04:49:51;;;;;;;8.32;1.75;;;;;;;27.06;24.39;100831.38;7390808;19;20027;-58
2024/01/07 04:52:17;;;;;;;3.00;0.77;;;;;;;28.97;23.05;100834.31;7389744;19;20458;-58
2024/01/07 04:54:43;;;;;;;5.20;2.00;;;;;;;26.14;25.47;100840.81;7390544;19;20006;-58
2024/01/07 04:57:10;;;;;;;2.20;1.20;;;;;;;25.92;25.45;100830.00;7393617;19;20386;-58
2024/01/07 04:59:36;;;;;;;1.05;0.85;;;;;;;26.67;25.10;100832.56;7396885;19;20340;-58
2024/01/07 05:02:02;;;;;;;1.52;1.45;;;;;;;26.71;25.01;100830.09;7397294;19;20066;-58
2024/01/07 05:04:28;;;;;;;2.00;0.93;;;;;;;27.20;24.78;100829.88;7400558;19;20466;-57
2024/01/07 05:06:54;;;;;;;4.95;1.52;;;;;;;27.86;24.01;100832.66;7397617;19;20014;-58
2024/01/07 05:09:20;;;;;;;2.38;1.70;;;;;;;26.24;25.44;100833.28;7397367;19;20085;-58
2024/01/07 05:11:46;;;;;;;1.65;1.13;;;;;;;26.96;24.85;100839.00;7396893;19;20028;-58
2024/01/07 05:14:12;;;;;;;7.15;2.45;;;;;;;26.61;25.46;100843.41;7396966;19;20014;-58
2024/01/07 05:16:39;;;;;;;2.65;1.23;;;;;;;27.28;24.86;100847.06;7400553;19;20022;-58
2024/01/07 05:19:05;;;;;;;4.03;1.27;;;;;;;27.56;25.08;100852.69;7396799;19;20033;-58
2024/01/07 05:21:31;;;;;;;1.30;0.82;;;;;;;28.52;23.99;100847.44;7396462;19;20028;-58
2024/01/07 05:23:57;;;;;;;4.03;0.65;;;;;;;28.36;23.97;100850.94;7395498;19;20014;-58
2024/01/07 05:26:23;;;;;;;3.05;1.65;;;;;;;27.49;24.59;100856.28;7400656;19;20034;-58
2024/01/07 05:28:49;;;;;;;3.08;1.77;;;;;;;27.70;24.07;100854.00;7396176;19;20395;-58
2024/01/07 05:31:19;;;;;;;4.45;1.48;;;;;;;27.56;24.33;100862.03;7395704;19;20501;-58
2024/01/07 05:33:45;;;;;;;1.70;0.47;;;;;;;26.35;24.68;100854.28;7396698;19;20010;-58
2024/01/07 05:36:12;;;;;;;1.70;1.17;;;;;;;26.65;24.97;100855.22;7400103;19;20011;-58
2024/01/07 05:38:38;;;;;;;4.10;1.48;;;;;;;26.87;24.41;100859.53;7396585;19;20074;-58
2024/01/07 05:41:05;;;;;;;0.10;0.10;;;;;;;26.92;24.28;100867.94;7396622;19;20367;-58
2024/01/07 05:43:31;;;;;;;4.75;1.38;;;;;;;26.48;24.40;100857.78;7396535;19;20340;-58
2024/01/07 05:45:57;;;;;;;0.52;0.40;;;;;;;25.79;24.95;100866.41;7399505;19;20014;-58
2024/01/07 05:48:23;;;;;;;13.20;2.42;;;;;;;25.56;25.43;100864.09;7395974;19;20088;-58
2024/01/07 05:50:50;;;;;;;2.42;1.27;;;;;;;25.15;25.37;100861.19;7394603;19;20435;-58
2024/01/07 05:53:17;;;;;;;5.95;2.00;;;;;;;23.91;26.22;100874.78;7392650;19;20503;-58
2024/01/07 05:55:43;;;;;;;0.90;0.90;;;;;;;23.78;26.34;100886.13;7397762;19;20034;-58
2024/01/07 05:58:09;;;;;;;2.65;0.95;;;;;;;24.08;26.48;100883.81;7395700;19;20011;-58
2024/01/07 06:00:35;;;;;;;2.97;1.75;;;;;;;24.60;26.11;100890.84;7395700;19;20074;-58
2024/01/07 06:03:01;;;;;;;3.13;1.30;;;;;;;26.33;24.79;100886.28;7395941;19;20025;-58
2024/01/07 06:05:28;;;;;;;0.70;0.70;;;;;;;26.90;24.44;100890.59;7396504;19;20069;-58
2024/01/07 06:07:54;;;;;;;2.10;1.15;;;;;;;27.15;23.98;100893.00;7393992;19;20462;-58
2024/01/07 06:10:21;;;;;;;1.48;1.38;;;;;;;25.99;24.98;100891.31;7394320;19;20018;-58
2024/01/07 06:12:47;;;;;;;6.68;1.13;;;;;;;27.72;23.84;100897.19;7393596;19;20018;-57
2024/01/07 06:15:13;;;;;;;2.60;1.20;;;;;;;28.65;23.39;100894.47;7395089;19;20023;-58
2024/01/07 06:17:39;;;;;;;2.17;1.10;;;;;;;26.17;25.08;100901.75;7394869;19;20015;-58
2024/01/07 06:20:06;;;;;;;2.83;1.55;;;;;;;24.30;26.38;100911.09;7394677;19;20048;-58
2024/01/07 06:22:32;;;;;;;0.73;0.70;;;;;;;24.70;26.17;100903.34;7392970;19;20371;-58
2024/01/07 06:24:58;;;;;;;0.35;0.35;;;;;;;24.53;26.50;100906.53;7395838;19;20007;-58
2024/01/07 06:27:24;;;;;;;2.40;2.20;;;;;;;25.98;25.12;100904.81;7394455;19;20015;-58
2024/01/07 06:29:50;;;;;;;1.08;1.08;;;;;;;25.95;25.26;100902.31;7392012;19;20006;-58
2024/01/07 06:32:16;;;;;;;2.38;0.95;;;;;;;24.87;26.26;100920.88;7389931;19;20021;-58
2024/01/07 06:34:42;;;;;;;1.33;1.23;;;;;;;25.28;26.36;100912.47;7392974;19;20078;-58
2024/01/07 06:37:10;;;;;;;25.92;1.90;;;;;;;25.51;25.92;100915.59;7390277;19;20010;-59
2024/01/07 06:39:36;;;;;;;1.75;1.20;;;;;;;24.40;27.10;100920.00;7390559;19;20692;-59
2024/01/07 06:42:02;;;;;;;1.08;1.05;;;;;;;25.39;26.46;100926.47;7388901;19;20015;-58
2024/01/07 06:44:28;;;;;;;0.30;0.30;;;;;;;26.03;25.44;100926.00;7390996;19;20078;-58
2024/01/07 06:46:54;;;;;;;7.25;1.08;;;;;;;28.10;24.04;100932.34;7397960;19;20045;-58
2024/01/07 06:49:20;;;;;;;0.90;0.80;;;;;;;28.66;23.40;100930.41;7394302;19;20007;-58
2024/01/07 06:51:47;;;;;;;0.68;0.68;;;;;;;28.85;23.64;100939.31;7394163;19;20020;-58
2024/01/07 06:54:13;;;;;;;1.35;0.93;;;;;;;28.13;23.99;100941.91;7394621;19;20022;-58
2024/01/07 06:56:39;;;;;;;5.38;1.80;;;;;;;30.86;22.44;100942.81;7397331;19;20011;-58
2024/01/07 06:59:05;;;;;;;0.80;0.52;;;;;;;31.94;21.20;100947.31;7392132;19;20015;-58
2024/01/07 07:01:31;;;;;;;1.90;0.90;;;;;;;32.43;20.98;100954.78;7392399;19;20017;-58
2024/01/07 07:03:57;;;;;;;1.25;0.98;;;;;;;32.88;20.41;100954.72;7395652;19;20035;-57
2024/01/07 07:06:24;;;;;;;2.80;1.88;;;;;;;33.25;20.76;100958.25;7395259;19;20027;-57
2024/01/07 07:08:50;;;;;;;5.30;2.17;;;;;;;33.32;20.62;100962.34;7391147;19;20015;-57
2024/01/07 07:11:16;;;;;;;8.15;1.30;;;;;;;33.54;20.49;100958.22;7393357;19;20014;-58
2024/01/07 07:13:42;;;;;;;5.88;2.00;;;;;;;33.56;20.61;100958.38;7392070;19;20007;-58
2024/01/07 07:16:08;;;;;;;2.53;1.38;;;;;;;34.06;20.31;100964.16;7395468;19;20824;-59
2024/01/07 07:18:34;;;;;;;2.42;1.63;;;;;;;34.34;20.35;100966.91;7392709;19;20018;-58
2024/01/07 07:21:01;;;;;;;1.95;1.05;;;;;;;34.22;19.96;100966.06;7393104;19;20027;-58
2024/01/07 07:23:27;;;;;;;1.73;1.60;;;;;;;34.28;19.89;100978.03;7393100;19;20034;-59
2024/01/07 07:25:53;;;;;;;11.20;3.15;;;;;;;34.25;20.03;100979.28;7395413;19;20025;-59
2024/01/07 07:28:19;;;;;;;2.92;0.95;;;;;;;34.03;20.17;100977.72;7392671;19;20035;-59
2024/01/07 07:30:45;;;;;;;2.17;1.63;;;;;;;34.40;20.25;100988.94;7392063;19;20011;-58
2024/01/07 07:33:11;;;;;;;1.48;0.95;;;;;;;34.74;19.82;100979.81;7392120;19;20027;-59
2024/01/07 07:35:39;;;;;;;2.13;1.77;;;;;;;34.83;19.55;100984.75;7394314;19;20029;-59
2024/01/07 07:38:06;;;;;;;3.33;2.10;;;;;;;34.86;19.91;100986.41;7392998;19;20010;-59
2024/01/07 07:40:32;;;;;;;1.90;1.13;;;;;;;34.71;19.68;100993.38;7392574;19;20014;-59
2024/01/07 07:42:58;;;;;;;6.13;1.58;;;;;;;34.88;19.64;100996.00;7391687;19;20462;-59
2024/01/07 07:45:24;;;;;;;2.80;1.60;;;;;;;34.79;20.02;101007.63;7393360;19;20020;-58
2024/01/07 07:47:50;;;;;;;0.40;0.40;;;;;;;34.83;19.71;101005.00;7395078;19;20018;-59
2024/01/07 07:50:16;;;;;;;2.78;1.10;;;;;;;34.88;19.76;101012.59;7391582;19;20014;-58
2024/01/07 07:52:45;;;;;;;14.80;2.00;;;;;;;34.91;19.82;101002.69;7389652;19;20014;-59
2024/01/07 07:55:11;;;;;;;1.55;1.15;;;;;;;34.71;19.82;101018.66;7393058;19;20031;-59
2024/01/07 07:57:38;;;;;;;2.10;1.98;;;;;;;34.89;19.85;101017.03;7392723;19;20053;-59
2024/01/07 08:00:06;;;;;;;15.98;3.78;;;;;;;34.94;19.79;101010.09;7394211;19;20023;-59
2024/01/07 08:02:33;;;;;;;4.13;1.52;;;;;;;35.38;19.55;101016.03;7395891;19;20025;-59
2024/01/07 08:04:59;;;;;;;1.58;1.45;;;;;;;35.57;19.48;101012.97;7392030;19;20027;-59
2024/01/07 08:07:25;;;;;;;3.67;2.38;;;;;;;35.61;19.09;101015.38;7394211;19;20010;-59
2024/01/07 08:09:51;;;;;;;2.47;1.83;;;;;;;35.43;19.11;101019.97;7391645;19;20046;-58
2024/01/07 08:12:17;;;;;;;2.45;2.22;;;;;;;35.40;19.41;101033.53;7390491;19;20467;-59
2024/01/07 08:14:43;;;;;;;3.53;1.95;;;;;;;35.51;19.23;101024.19;7391170;19;20431;-58
2024/01/07 08:17:09;;;;;;;1.38;1.15;;;;;;;35.57;19.24;101023.81;7396480;19;20027;-58
2024/01/07 08:19:36;;;;;;;9.30;3.60;;;;;;;35.51;19.50;101035.75;7390878;19;20338;-59
2024/01/07 08:22:02;;;;;;;16.42;2.53;;;;;;;35.48;19.35;101037.00;7391754;19;20022;-59
2024/01/07 08:24:28;;;;;;;5.15;1.63;;;;;;;35.55;19.25;101030.22;7391285;19;20018;-59
2024/01/07 08:26:55;;;;;;;8.98;2.85;;;;;;;35.52;19.10;101034.38;7395861;19;20006;-59
2024/01/07 08:29:21;;;;;;;4.65;2.35;;;;;;;35.54;19.17;101040.28;7391177;19;20411;-58
2024/01/07 08:31:47;;;;;;;6.40;2.10;;;;;;;35.67;18.92;101051.31;7392446;19;20106;-59
2024/01/07 08:34:14;;;;;;;2.13;1.33;;;;;;;35.55;19.05;101041.81;7401910;19;20015;-58
2024/01/07 08:36:41;;;;;;;6.80;1.58;;;;;;;35.61;18.96;101050.91;7401653;19;20010;-58
2024/01/07 08:39:08;;;;;;;4.20;1.13;;;;;;;35.77;18.88;101045.44;7398513;19;20025;-58
2024/01/07 08:41:34;;;;;;;2.00;1.27;;;;;;;35.68;19.00;101052.84;7398212;19;20042;-58
2024/01/07 08:44:00;;;;;;;3.70;1.45;;;;;;;35.37;18.89;101046.38;7399299;19;20014;-58
2024/01/07 08:46:26;;;;;;;1.60;1.25;;;;;;;35.33;18.91;101062.72;7401573;19;20015;-58
2024/01/07 08:48:53;;;;;;;1.98;1.55;;;;;;;35.04;19.25;101071.66;7398606;19;20478;-58
2024/01/07 08:51:19;;;;;;;7.32;2.05;;;;;;;34.90;19.15;101073.53;7397635;19;20463;-58
2024/01/07 08:53:46;;;;;;;1.63;1.52;;;;;;;34.78;19.45;101082.13;7395308;19;20497;-58
2024/01/07 08:56:12;;;;;;;3.50;1.17;;;;;;;35.02;19.20;101074.41;7395523;19;20473;-58
2024/01/07 08:58:41;;;;;;;4.95;2.28;;;;;;;35.10;19.30;101080.75;7397464;19;20070;-58
2024/01/07 09:01:07;;;;;;;13.50;4.35;;;;;;;35.10;19.19;101074.97;7396130;19;20015;-58
2024/01/07 09:03:33;;;;;;;14.57;5.57;;;;;;;35.14;19.16;101075.25;7398777;19;20014;-58
2024/01/07 09:05:59;;;;;;;15.50;4.00;;;;;;;35.20;19.40;101075.63;7398116;19;20011;-58
2024/01/07 09:08:25;;;;;;;5.95;3.88;;;;;;;35.13;19.10;101084.56;7397166;19;20015;-58
2024/01/07 09:10:51;;;;;;;2.78;2.35;;;;;;;34.93;19.08;101090.41;7396599;19;20021;-58
2024/01/07 09:13:18;;;;;;;16.30;3.97;;;;;;;35.01;19.34;101081.56;7395237;19;20023;-58
2024/01/07 09:15:44;;;;;;;2.03;1.67;;;;;;;34.95;19.62;101092.72;7398310;19;20451;-58
2024/01/07 09:18:10;;;;;;;10.82;3.20;;;;;;;34.96;19.38;101089.19;7397292;19;20035;-58
2024/01/07 09:20:36;;;;;;;6.22;3.03;;;;;;;34.99;19.50;101090.91;7397236;19;20275;-58
2024/01/07 09:23:02;;;;;;;6.57;1.50;;;;;;;35.00;19.46;101100.31;7397101;19;20383;-58
2024/01/07 09:25:29;;;;;;;2.78;1.63;;;;;;;34.84;19.58;101104.97;7397114;19;20339;-58
2024/01/07 09:27:55;;;;;;;7.90;2.50;;;;;;;34.55;19.53;101104.34;7396885;19;20017;-58
2024/01/07 09:30:21;;;;;;;2.83;1.75;;;;;;;34.52;19.53;101109.25;7396648;19;20014;-58
2024/01/07 09:32:47;;;;;;;3.08;1.35;;;;;;;34.53;19.54;101104.19;7395750;19;20027;-58
2024/01/07 09:35:13;;;;;;;4.65;1.50;;;;;;;33.30;20.24;101115.25;7395295;19;20021;-58
2024/01/07 09:37:39;;;;;;;5.10;2.33;;;;;;;33.54;19.82;101117.13;7396553;19;20011;-58
2024/01/07 09:40:06;;;;;;;8.85;2.70;;;;;;;33.69;20.28;101122.59;7396511;19;20014;-58
2024/01/07 09:42:32;;;;;;;9.13;3.90;;;;;;;33.80;20.05;101127.00;7396032;19;20010;-57
2024/01/07 09:45:03;;;;;;;7.70;2.75;;;;;;;33.45;20.07;101120.75;7394705;19;20031;-58
2024/01/07 09:47:29;;;;;;;1.92;1.75;;;;;;;32.93;20.40;101129.00;7396410;19;20010;-58
2024/01/07 09:49:56;;;;;;;8.52;2.85;;;;;;;32.88;20.53;101127.91;7396215;19;20013;-58
2024/01/07 09:52:25;;;;;;;1.33;1.20;;;;;;;32.51;20.72;101129.28;7395324;19;20445;-58
2024/01/07 09:54:59;;;;;;;10.05;2.42;;;;;;;32.25;21.21;101130.03;7396826;19;20070;-58
2024/01/07 09:57:25;;;;;;;1.20;1.10;;;;;;;32.07;21.29;101137.97;7396262;19;20463;-58
2024/01/07 09:59:52;;;;;;;7.65;2.75;;;;;;;32.37;21.09;101144.66;7396508;19;20154;-58
2024/01/07 10:02:18;;;;;;;2.10;0.98;;;;;;;32.46;20.93;101150.50;7396530;19;20020;-58
2024/01/07 10:04:47;;;;;;;1.52;1.17;;;;;;;32.29;20.84;101147.66;7399301;19;20006;-57
2024/01/07 10:07:13;;;;;;;6.75;3.35;;;;;;;32.29;21.02;101153.44;7399804;19;20472;-58
2024/01/07 10:09:42;;;;;;;8.18;3.45;;;;;;;31.21;21.76;101165.94;7393958;19;20015;-58
2024/01/07 10:12:08;;;;;;;22.88;5.30;;;;;;;30.37;22.56;101165.03;7393909;19;20099;-58
2024/01/07 10:14:35;;;;;;;5.68;1.88;;;;;;;28.78;23.26;101173.19;7394609;19;20514;-58
2024/01/07 10:17:01;;;;;;;3.75;1.77;;;;;;;27.35;24.30;101173.31;7399231;19;20483;-58
2024/01/07 10:19:27;;;;;;;23.20;6.57;;;;;;;26.77;24.65;101170.09;7394985;19;20022;-58
2024/01/07 10:22:12;;;;;;;38.70;8.80;;;;;;;27.10;24.70;101177.06;7394599;19;20067;-58
2024/01/07 10:24:40;;;;;;;37.17;8.20;;;;;;;26.15;25.29;101175.72;7394454;19;20018;-58
2024/01/07 10:27:07;;;;;;;27.92;4.47;;;;;;;26.81;25.37;101171.28;7397743;19;20015;-57
2024/01/07 10:29:33;;;;;;;2.95;1.80;;;;;;;28.45;23.85;101163.53;7394045;19;20006;-58
2024/01/07 10:32:04;;;;;;;19.45;3.83;;;;;;;28.98;23.83;101172.22;7393960;19;20010;-58
2024/01/07 10:34:32;;;;;;;20.65;3.50;;;;;;;27.73;24.71;101167.81;7397656;19;20006;-48
2024/01/07 10:37:02;;;;;;;28.15;5.38;;;;;;;27.51;24.76;101180.66;7397509;19;20016;-48
2024/01/07 10:39:30;;;;;;;3.50;1.02;;;;;;;27.46;25.27;101181.56;7394501;19;20006;-48
2024/01/07 10:42:00;;;;;;;4.88;2.45;;;;;;;27.50;24.91;101182.00;7394414;19;20006;-47
2024/01/07 10:44:29;;;;;;;9.73;3.92;;;;;;;27.13;25.44;101187.41;7393548;19;20090;-48
2024/01/07 10:46:55;;;;;;;6.35;3.38;;;;;;;26.15;26.66;101187.91;7396433;19;20018;-48
2024/01/07 10:49:24;;;;;;;15.73;2.30;;;;;;;27.31;25.48;101183.56;7393782;19;20014;-48
2024/01/07 10:52:06;;;;;;;6.13;2.03;;;;;;;29.02;24.51;101186.19;7393281;19;20034;-48
2024/01/07 10:54:34;;;;;;;0.52;0.52;;;;;;;28.05;24.95;101182.50;7392786;19;20022;-48
2024/01/07 10:57:36;;;;;;;3.53;1.63;;;;;;;27.12;26.23;101183.78;7397831;19;20107;-48
2024/01/07 11:00:07;;;;;;;3.22;2.15;;;;;;;28.74;24.97;101180.63;7394665;19;20034;-47
2024/01/07 11:03:02;;;;;;;14.85;2.33;;;;;;;29.50;24.42;101178.53;7394547;19;20014;-48
2024/01/07 11:05:36;;;;;;;3.83;2.45;;;;;;;29.55;24.20;101184.06;7392883;19;20018;-48
2024/01/07 11:08:13;;;;;;;1.55;1.45;;;;;;;29.06;24.89;101186.59;7392468;19;20023;-48
2024/01/07 11:10:46;;;;;;;4.45;1.10;;;;;;;28.85;24.73;101177.38;7392808;19;20015;-48
2024/01/07 11:13:31;;;;;;;3.08;1.13;;;;;;;30.32;23.77;101179.63;7392397;19;20450;-48
2024/01/07 11:15:57;;;;;;;3.30;1.92;;;;;;;29.92;24.19;101174.63;7394478;19;20014;-48
2024/01/07 11:18:29;;;;;;;1.77;1.05;;;;;;;29.94;24.37;101186.28;7392923;19;20021;-48
2024/01/07 11:21:00;;;;;;;1.00;0.65;;;;;;;29.78;24.27;101186.91;7393646;19;20032;-48
2024/01/07 11:23:32;;;;;;;0.50;0.50;;;;;;;28.58;25.14;101184.78;7393097;19;20019;-48